createdAt,value
2018-12-20T00:00:38.577Z,6.80
2018-12-20T00:03:06.274Z,7.07
2018-12-20T00:05:34.091Z,7.90
2018-12-20T00:08:02.909Z,7.60
2018-12-20T00:10:30.665Z,7.60
2018-12-20T00:12:58.353Z,5.77
2018-12-20T00:15:27.354Z,4.77
2018-12-20T00:17:55.875Z,5.40
2018-12-20T00:20:24.529Z,4.90
2018-12-20T00:22:52.193Z,6.03
2018-12-20T00:25:19.943Z,6.70
2018-12-20T00:27:47.742Z,5.37
2018-12-20T00:30:15.455Z,6.17
2018-12-20T00:32:43.205Z,8.10
2018-12-20T00:35:10.926Z,6.80
2018-12-20T00:37:38.702Z,6.90
2018-12-20T00:40:06.973Z,6.50
2018-12-20T00:42:34.854Z,4.80
2018-12-20T00:45:02.639Z,5.17
2018-12-20T00:47:31.043Z,6.03
2018-12-20T00:49:58.780Z,5.00
2018-12-20T00:52:28.151Z,3.93
2018-12-20T00:54:55.774Z,2.47
2018-12-20T00:57:23.370Z,3.57
2018-12-20T00:59:51.093Z,8.00
2018-12-20T01:02:21.452Z,8.70
2018-12-20T01:04:49.080Z,7.70
2018-12-20T01:07:18.257Z,5.33
2018-12-20T01:09:46.108Z,6.87
2018-12-20T01:12:14.945Z,7.53
2018-12-20T01:14:45.492Z,6.57
2018-12-20T01:17:12.398Z,6.10
2018-12-20T01:19:41.166Z,5.00
2018-12-20T01:22:09.115Z,4.93
2018-12-20T01:24:37.717Z,5.70
2018-12-20T01:27:06.090Z,7.13
2018-12-20T01:29:33.760Z,7.37
2018-12-20T01:32:03.151Z,7.30
2018-12-20T01:34:30.962Z,6.70
2018-12-20T01:36:58.649Z,8.87
2018-12-20T01:39:26.892Z,7.50
2018-12-20T01:41:54.557Z,9.77
2018-12-20T01:44:22.165Z,9.43
2018-12-20T01:46:50.191Z,10.10
2018-12-20T01:49:17.834Z,7.90
2018-12-20T01:51:47.892Z,8.73
2018-12-20T01:54:17.655Z,7.97
2018-12-20T01:56:45.263Z,7.70
2018-12-20T01:59:13.731Z,7.93
2018-12-20T02:01:42.524Z,7.30
2018-12-20T02:04:10.395Z,7.37
2018-12-20T02:06:38.190Z,5.90
2018-12-20T02:09:07.857Z,6.63
2018-12-20T02:11:35.619Z,7.43
2018-12-20T02:14:03.280Z,6.87
2018-12-20T02:16:30.853Z,8.27
2018-12-20T02:18:58.647Z,6.77
2018-12-20T02:21:26.431Z,5.30
2018-12-20T02:23:54.292Z,6.60
2018-12-20T02:26:22.632Z,7.03
2018-12-20T02:28:50.310Z,7.47
2018-12-20T02:31:19.013Z,6.47
2018-12-20T02:33:46.584Z,8.10
2018-12-20T02:36:14.745Z,6.67
2018-12-20T02:38:42.468Z,8.20
2018-12-20T02:41:10.260Z,7.83
2018-12-20T02:43:37.880Z,7.43
2018-12-20T02:46:06.746Z,7.23
2018-12-20T02:48:34.568Z,8.37
2018-12-20T02:51:02.253Z,7.50
2018-12-20T02:53:30.249Z,8.17
2018-12-20T02:55:58.355Z,8.10
2018-12-20T02:58:27.260Z,8.40
2018-12-20T03:00:55.271Z,9.37
2018-12-20T03:03:23.296Z,7.13
2018-12-20T03:05:51.089Z,7.87
2018-12-20T03:08:20.036Z,7.30
2018-12-20T03:10:47.753Z,7.43
2018-12-20T03:13:17.398Z,6.23
2018-12-20T03:15:44.988Z,7.53
2018-12-20T03:18:13.736Z,7.27
2018-12-20T03:20:42.935Z,8.97
2018-12-20T03:23:12.708Z,8.73
2018-12-20T03:25:40.809Z,7.70
2018-12-20T03:28:10.066Z,8.80
2018-12-20T03:30:38.039Z,7.33
2018-12-20T03:33:06.350Z,7.83
2018-12-20T03:35:34.868Z,8.33
2018-12-20T03:38:02.761Z,6.27
2018-12-20T03:40:30.793Z,6.90
2018-12-20T03:42:58.456Z,8.00
2018-12-20T03:45:29.101Z,7.83
2018-12-20T03:47:55.823Z,6.47
2018-12-20T03:50:23.522Z,7.27
2018-12-20T03:52:51.146Z,6.53
2018-12-20T03:55:19.665Z,8.50
2018-12-20T03:57:47.448Z,7.80
2018-12-20T04:00:15.503Z,8.27
2018-12-20T04:02:43.545Z,8.20
2018-12-20T04:05:12.735Z,8.17
2018-12-20T04:07:40.514Z,9.00
2018-12-20T04:10:08.604Z,9.13
2018-12-20T04:12:36.584Z,8.10
2018-12-20T04:15:05.101Z,9.20
2018-12-20T04:17:32.685Z,7.30
2018-12-20T04:20:01.046Z,9.40
2018-12-20T04:22:28.693Z,8.50
2018-12-20T04:24:56.413Z,9.10
2018-12-20T04:27:24.122Z,10.60
2018-12-20T04:29:51.982Z,10.47
2018-12-20T04:32:19.704Z,8.73
2018-12-20T04:34:47.555Z,8.90
2018-12-20T04:37:15.532Z,8.70
2018-12-20T04:39:43.485Z,8.17
2018-12-20T04:42:12.049Z,7.73
2018-12-20T04:44:39.866Z,8.87
2018-12-20T04:47:07.596Z,9.23
2018-12-20T04:49:35.710Z,9.70
2018-12-20T04:52:03.703Z,10.40
2018-12-20T04:54:31.453Z,10.60
2018-12-20T04:57:00.603Z,10.63
2018-12-20T04:59:28.317Z,10.40
2018-12-20T05:01:57.200Z,10.20
2018-12-20T05:04:25.108Z,9.47
2018-12-20T05:06:52.736Z,10.70
2018-12-20T05:09:21.831Z,11.17
2018-12-20T05:11:49.686Z,9.43
2018-12-20T05:14:17.529Z,10.13
2018-12-20T05:16:45.268Z,11.80
2018-12-20T05:19:13.925Z,10.20
2018-12-20T05:21:41.548Z,8.77
2018-12-20T05:24:09.160Z,8.73
2018-12-20T05:26:36.816Z,7.97
2018-12-20T05:29:05.521Z,9.17
2018-12-20T05:31:33.135Z,8.33
2018-12-20T05:34:00.902Z,10.03
2018-12-20T05:36:28.636Z,11.47
2018-12-20T05:38:57.226Z,10.17
2018-12-20T05:41:25.141Z,10.20
2018-12-20T05:43:54.014Z,10.23
2018-12-20T05:46:21.609Z,10.83
2018-12-20T05:48:49.909Z,9.90
2018-12-20T05:51:17.913Z,9.30
2018-12-20T05:53:45.542Z,10.57
2018-12-20T05:56:13.500Z,10.57
2018-12-20T05:58:41.588Z,10.00
2018-12-20T06:01:09.693Z,11.40
2018-12-20T06:03:37.610Z,14.70
2018-12-20T06:06:06.244Z,17.70
2018-12-20T06:08:34.270Z,16.67
2018-12-20T06:11:03.845Z,13.97
2018-12-20T06:13:31.974Z,15.80
2018-12-20T06:16:01.141Z,19.90
2018-12-20T06:18:29.015Z,19.57
2018-12-20T06:20:57.339Z,19.80
2018-12-20T06:23:25.334Z,18.77
2018-12-20T06:25:52.972Z,18.33
2018-12-20T06:28:20.696Z,14.83
2018-12-20T06:30:49.151Z,11.50
2018-12-20T06:33:16.744Z,9.73
2018-12-20T06:35:44.414Z,10.73
2018-12-20T06:38:13.430Z,10.03
2018-12-20T06:40:41.201Z,9.17
2018-12-20T06:43:09.060Z,10.10
2018-12-20T06:45:36.686Z,9.13
2018-12-20T06:48:04.476Z,8.77
2018-12-20T06:50:32.094Z,9.13
2018-12-20T06:53:00.284Z,8.50
2018-12-20T06:55:27.950Z,9.47
2018-12-20T06:57:56.169Z,6.83
2018-12-20T07:00:24.198Z,9.60
2018-12-20T07:02:51.971Z,9.70
2018-12-20T07:05:19.724Z,8.50
2018-12-20T07:07:47.396Z,9.20
2018-12-20T07:10:15.116Z,9.43
2018-12-20T07:12:42.861Z,10.10
2018-12-20T07:15:10.481Z,10.20
2018-12-20T07:17:38.292Z,9.20
2018-12-20T07:20:06.544Z,10.87
2018-12-20T07:22:34.311Z,13.30
2018-12-20T07:25:02.486Z,13.47
2018-12-20T07:27:30.087Z,12.13
2018-12-20T07:29:58.948Z,11.60
2018-12-20T07:32:26.815Z,12.63
2018-12-20T07:34:54.474Z,17.77
2018-12-20T07:37:24.299Z,30.17
2018-12-20T07:39:52.135Z,36.93
2018-12-20T07:42:19.797Z,26.50
2018-12-20T07:44:47.481Z,19.33
2018-12-20T07:47:15.907Z,15.30
2018-12-20T07:49:43.578Z,13.60
2018-12-20T07:52:11.165Z,13.70
2018-12-20T07:54:38.826Z,17.57
2018-12-20T07:57:06.462Z,19.40
2018-12-20T07:59:34.146Z,19.80
2018-12-20T08:02:01.738Z,18.60
2018-12-20T08:04:29.459Z,15.83
2018-12-20T08:06:57.088Z,14.10
2018-12-20T08:09:24.752Z,16.20
2018-12-20T08:11:52.497Z,14.70
2018-12-20T08:14:20.212Z,19.63
2018-12-20T08:16:48.933Z,23.43
2018-12-20T08:19:17.626Z,16.13
2018-12-20T08:21:45.280Z,18.63
2018-12-20T08:24:16.480Z,13.53
2018-12-20T08:26:44.258Z,14.80
2018-12-20T08:29:12.353Z,14.40
2018-12-20T08:31:39.996Z,14.43
2018-12-20T08:34:07.677Z,13.67
2018-12-20T08:36:35.402Z,12.23
2018-12-20T08:39:03.939Z,13.37
2018-12-20T08:41:33.035Z,14.93
2018-12-20T08:44:00.679Z,13.53
2018-12-20T08:46:28.332Z,14.53
2018-12-20T08:48:55.946Z,15.80
2018-12-20T08:51:23.886Z,14.90
2018-12-20T08:53:51.519Z,13.73
2018-12-20T08:56:19.170Z,15.47
2018-12-20T08:58:46.829Z,16.13
2018-12-20T09:01:14.690Z,15.93
2018-12-20T09:03:42.281Z,16.47
2018-12-20T09:06:10.062Z,16.23
2018-12-20T09:08:37.639Z,17.03
2018-12-20T09:11:05.492Z,13.90
2018-12-20T09:13:33.209Z,16.57
2018-12-20T09:16:00.811Z,17.10
2018-12-20T09:18:29.390Z,16.80
2018-12-20T09:20:57.217Z,17.30
2018-12-20T09:23:24.928Z,18.07
2018-12-20T09:25:52.623Z,17.23
2018-12-20T09:28:20.249Z,16.50
2018-12-20T09:30:47.900Z,15.87
2018-12-20T09:33:15.523Z,12.57
2018-12-20T09:35:43.097Z,15.97
2018-12-20T09:38:10.709Z,12.43
2018-12-20T09:40:38.392Z,11.90
2018-12-20T09:43:06.775Z,10.93
2018-12-20T09:45:34.376Z,10.57
2018-12-20T09:48:05.973Z,12.30
2018-12-20T09:50:33.586Z,12.30
2018-12-20T09:53:01.245Z,11.67
2018-12-20T09:55:28.892Z,12.10
2018-12-20T09:57:56.553Z,10.83
2018-12-20T10:00:24.208Z,12.20
2018-12-20T10:02:52.659Z,12.80
2018-12-20T10:05:20.284Z,11.40
2018-12-20T10:07:47.955Z,13.77
2018-12-20T10:10:15.650Z,13.07
2018-12-20T10:12:43.518Z,11.80
2018-12-20T10:15:11.180Z,14.97
2018-12-20T10:17:39.135Z,13.47
2018-12-20T10:20:09.046Z,14.73
2018-12-20T10:22:36.812Z,12.60
2018-12-20T10:25:04.836Z,12.73
2018-12-20T10:27:32.521Z,16.87
2018-12-20T10:30:00.337Z,14.83
2018-12-20T10:32:27.922Z,20.13
2018-12-20T10:34:55.592Z,17.20
2018-12-20T10:37:24.133Z,14.80
2018-12-20T10:39:51.721Z,13.10
2018-12-20T10:42:19.352Z,12.63
2018-12-20T10:44:47.000Z,12.77
2018-12-20T10:47:28.605Z,17.60
2018-12-20T10:49:50.618Z,15.00
2018-12-20T10:52:19.424Z,17.57
2018-12-20T10:54:47.392Z,15.10
2018-12-20T10:57:15.191Z,16.20
2018-12-20T10:59:43.000Z,16.57
2018-12-20T11:02:16.347Z,14.30
2018-12-20T11:04:49.650Z,13.50
2018-12-20T11:07:22.751Z,11.77
2018-12-20T11:09:56.077Z,10.43
2018-12-20T11:12:27.180Z,9.00
2018-12-20T11:14:55.151Z,10.90
2018-12-20T11:17:22.860Z,10.20
2018-12-20T11:19:50.583Z,9.50
2018-12-20T11:22:18.175Z,9.97
2018-12-20T11:24:45.965Z,10.40
2018-12-20T11:27:13.768Z,10.47
2018-12-20T11:29:41.866Z,8.90
2018-12-20T11:32:09.563Z,9.83
2018-12-20T11:34:37.209Z,10.67
2018-12-20T11:37:05.108Z,9.80
2018-12-20T11:39:33.048Z,9.87
2018-12-20T11:42:02.043Z,12.00
2018-12-20T11:44:29.700Z,13.37
2018-12-20T11:46:58.040Z,13.50
2018-12-20T11:49:25.873Z,15.30
2018-12-20T11:51:53.627Z,11.90
2018-12-20T11:54:21.303Z,10.80
2018-12-20T11:56:49.154Z,9.47
2018-12-20T11:59:16.970Z,11.13
2018-12-20T12:01:45.359Z,9.00
2018-12-20T12:04:13.272Z,12.07
2018-12-20T12:06:40.946Z,11.27
2018-12-20T12:09:08.914Z,11.23
2018-12-20T12:11:36.860Z,11.00
2018-12-20T12:14:04.518Z,12.83
2018-12-20T12:16:32.168Z,10.83
2018-12-20T12:18:59.824Z,10.60
2018-12-20T12:21:27.443Z,11.40
2018-12-20T12:23:55.115Z,10.63
2018-12-20T12:26:22.920Z,11.27
2018-12-20T12:28:50.555Z,12.67
2018-12-20T12:31:18.295Z,13.67
2018-12-20T12:33:46.078Z,15.20
2018-12-20T12:36:13.684Z,19.47
2018-12-20T12:38:41.348Z,19.60
2018-12-20T12:41:09.033Z,17.90
2018-12-20T12:43:36.698Z,17.00
2018-12-20T12:46:04.331Z,17.23
2018-12-20T12:48:31.996Z,15.27
2018-12-20T12:50:59.652Z,17.77
2018-12-20T12:53:27.412Z,16.07
2018-12-20T12:55:55.081Z,16.10
2018-12-20T12:58:22.857Z,15.77
2018-12-20T13:00:50.616Z,14.33
2018-12-20T13:03:18.535Z,17.30
2018-12-20T13:05:46.251Z,15.40
2018-12-20T13:08:13.971Z,17.10
2018-12-20T13:10:41.773Z,14.93
2018-12-20T13:13:09.389Z,15.63
2018-12-20T13:15:37.152Z,13.37
2018-12-20T13:18:13.608Z,15.93
2018-12-20T13:20:34.453Z,16.07
2018-12-20T13:23:02.116Z,14.70
2018-12-20T13:25:29.749Z,12.57
2018-12-20T13:27:57.496Z,15.70
2018-12-20T13:30:25.102Z,13.40
2018-12-20T13:32:52.766Z,11.90
2018-12-20T13:35:20.341Z,12.43
2018-12-20T13:37:48.061Z,10.30
2018-12-20T13:40:15.722Z,11.70
2018-12-20T13:42:43.426Z,10.27
2018-12-20T13:45:12.020Z,10.77
2018-12-20T13:47:39.764Z,11.30
2018-12-20T13:50:08.059Z,11.00
2018-12-20T13:52:35.653Z,10.23
2018-12-20T13:55:03.639Z,13.03
2018-12-20T13:57:32.382Z,13.63
2018-12-20T14:00:00.046Z,12.70
2018-12-20T14:02:27.800Z,13.20
2018-12-20T14:04:55.539Z,11.60
2018-12-20T14:07:23.280Z,13.40
2018-12-20T14:09:51.088Z,11.80
2018-12-20T14:12:18.823Z,9.73
2018-12-20T14:14:46.482Z,11.50
2018-12-20T14:17:14.055Z,11.13
2018-12-20T14:19:41.774Z,10.43
2018-12-20T14:22:09.460Z,11.17
2018-12-20T14:24:37.130Z,9.90
2018-12-20T14:27:05.046Z,9.30
2018-12-20T14:29:33.632Z,10.63
2018-12-20T14:32:01.931Z,10.90
2018-12-20T14:34:29.560Z,10.67
2018-12-20T14:36:57.350Z,13.60
2018-12-20T14:39:25.044Z,13.27
2018-12-20T14:41:52.948Z,12.37
2018-12-20T14:44:20.641Z,11.10
2018-12-20T14:46:48.389Z,12.07
2018-12-20T14:49:16.283Z,12.50
2018-12-20T14:51:44.113Z,11.70
2018-12-20T14:54:11.789Z,11.80
2018-12-20T14:56:40.518Z,10.90
2018-12-20T14:59:08.127Z,10.30
2018-12-20T15:01:36.000Z,11.33
2018-12-20T15:04:04.342Z,15.27
2018-12-20T15:06:32.051Z,15.87
2018-12-20T15:09:00.026Z,15.33
2018-12-20T15:11:27.978Z,14.77
2018-12-20T15:13:56.472Z,16.07
2018-12-20T15:16:24.989Z,17.30
2018-12-20T15:18:53.655Z,18.70
2018-12-20T15:21:21.872Z,17.30
2018-12-20T15:23:49.484Z,20.97
2018-12-20T15:26:17.234Z,16.87
2018-12-20T15:28:44.866Z,15.37
2018-12-20T15:31:12.862Z,16.53
2018-12-20T15:33:41.552Z,15.87
2018-12-20T15:36:10.311Z,15.30
2018-12-20T15:38:38.910Z,17.10
2018-12-20T15:41:07.209Z,14.10
2018-12-20T15:43:35.018Z,13.90
2018-12-20T15:46:04.405Z,12.70
2018-12-20T15:48:33.611Z,12.13
2018-12-20T15:51:02.992Z,11.43
2018-12-20T15:53:30.877Z,11.10
2018-12-20T15:56:02.761Z,10.43
2018-12-20T15:58:31.344Z,9.17
2018-12-20T16:01:00.083Z,9.63
2018-12-20T16:03:28.007Z,8.80
2018-12-20T16:05:55.731Z,10.00
2018-12-20T16:08:23.983Z,9.40
2018-12-20T16:10:52.903Z,8.47
2018-12-20T16:13:21.859Z,9.13
2018-12-20T16:15:51.018Z,10.10
2018-12-20T16:18:19.033Z,9.27
2018-12-20T16:20:46.787Z,11.03
2018-12-20T16:23:14.568Z,9.90
2018-12-20T16:25:42.215Z,8.83
2018-12-20T16:28:10.851Z,9.77
2018-12-20T16:30:38.765Z,11.37
2018-12-20T16:33:07.308Z,10.37
2018-12-20T16:35:35.387Z,8.93
2018-12-20T16:38:02.990Z,10.50
2018-12-20T16:40:30.689Z,8.73
2018-12-20T16:42:58.355Z,10.53
2018-12-20T16:45:26.062Z,12.63
2018-12-20T16:47:53.679Z,13.40
2018-12-20T16:50:21.493Z,13.20
2018-12-20T16:52:49.223Z,11.00
2018-12-20T16:55:17.854Z,9.13
2018-12-20T16:57:45.505Z,8.07
2018-12-20T17:00:16.068Z,7.33
2018-12-20T17:02:43.869Z,8.60
2018-12-20T17:05:15.740Z,7.70
2018-12-20T17:07:43.469Z,6.20
2018-12-20T17:10:11.125Z,6.80
2018-12-20T17:12:41.068Z,5.90
2018-12-20T17:15:09.577Z,5.90
2018-12-20T17:17:38.112Z,6.80
2018-12-20T17:20:07.466Z,5.77
2018-12-20T17:22:35.987Z,6.43
2018-12-20T17:25:04.657Z,6.47
2018-12-20T17:27:33.632Z,6.20
2018-12-20T17:30:06.187Z,8.97
2018-12-20T17:32:33.942Z,6.37
2018-12-20T17:35:03.077Z,8.57
2018-12-20T17:37:31.037Z,8.30
2018-12-20T17:39:58.854Z,8.60
2018-12-20T17:42:27.335Z,7.70
2018-12-20T17:44:56.093Z,7.90
2018-12-20T17:47:23.762Z,8.13
2018-12-20T17:49:51.392Z,7.60
2018-12-20T17:52:20.395Z,7.03
2018-12-20T17:54:48.061Z,6.20
2018-12-20T17:57:15.670Z,7.13
2018-12-20T17:59:43.487Z,5.90
2018-12-20T18:02:12.434Z,5.53
2018-12-20T18:04:40.274Z,4.50
2018-12-20T18:07:08.913Z,4.10
2018-12-20T18:09:36.593Z,5.03
2018-12-20T18:12:04.232Z,4.80
2018-12-20T18:14:32.084Z,5.70
2018-12-20T18:17:00.685Z,4.77
2018-12-20T18:19:29.099Z,5.27
2018-12-20T18:21:57.048Z,5.30
2018-12-20T18:24:25.537Z,5.10
2018-12-20T18:26:53.289Z,5.20
2018-12-20T18:29:21.247Z,6.50
2018-12-20T18:31:48.884Z,9.40
2018-12-20T18:34:16.867Z,9.63
2018-12-20T18:36:44.580Z,10.30
2018-12-20T18:39:12.404Z,10.23
2018-12-20T18:41:40.089Z,9.23
2018-12-20T18:44:09.006Z,11.10
2018-12-20T18:46:37.555Z,9.23
2018-12-20T18:49:05.366Z,10.00
2018-12-20T18:51:33.033Z,12.30
2018-12-20T18:54:02.206Z,11.93
2018-12-20T18:56:29.876Z,10.70
2018-12-20T18:58:59.503Z,10.67
2018-12-20T19:01:27.683Z,12.10
2018-12-20T19:03:55.326Z,10.30
2018-12-20T19:06:23.270Z,10.60
2018-12-20T19:08:51.919Z,11.20
2018-12-20T19:11:20.586Z,11.37
2018-12-20T19:13:49.143Z,10.20
2018-12-20T19:16:17.090Z,13.30
2018-12-20T19:18:44.905Z,11.47
2018-12-20T19:21:12.622Z,12.47
2018-12-20T19:23:40.705Z,11.90
2018-12-20T19:26:12.420Z,11.60
2018-12-20T19:28:40.610Z,12.80
2018-12-20T19:31:15.583Z,9.20
2018-12-20T19:33:43.930Z,8.37
2018-12-20T19:36:13.151Z,8.53
2018-12-20T19:38:41.146Z,16.23
2018-12-20T19:41:10.999Z,15.80
2018-12-20T19:43:38.807Z,14.17
2018-12-20T19:46:06.505Z,12.47
2018-12-20T19:48:34.590Z,14.93
2018-12-20T19:51:03.720Z,12.07
2018-12-20T19:53:32.490Z,16.07
2018-12-20T19:56:00.649Z,16.63
2018-12-20T19:58:30.569Z,14.10
2018-12-20T20:00:59.128Z,15.03
2018-12-20T20:03:27.139Z,12.20
2018-12-20T20:05:56.278Z,12.20
2018-12-20T20:08:24.152Z,11.80
2018-12-20T20:10:54.304Z,9.60
2018-12-20T20:13:30.525Z,7.40
2018-12-20T20:15:52.354Z,6.40
2018-12-20T20:18:20.711Z,6.60
2018-12-20T20:20:48.496Z,7.30
2018-12-20T20:23:19.258Z,7.07
2018-12-20T20:25:47.139Z,6.87
2018-12-20T20:28:17.318Z,6.47
2018-12-20T20:30:45.912Z,7.90
2018-12-20T20:33:15.723Z,11.07
2018-12-20T20:35:43.448Z,13.77
2018-12-20T20:38:11.383Z,12.70
2018-12-20T20:40:40.228Z,12.13
2018-12-20T20:43:07.862Z,16.50
2018-12-20T20:45:35.695Z,15.33
2018-12-20T20:48:03.374Z,18.97
2018-12-20T20:50:31.098Z,20.20
2018-12-20T20:52:59.143Z,17.47
2018-12-20T20:55:26.869Z,16.53
2018-12-20T20:57:55.318Z,17.70
2018-12-20T21:00:25.276Z,17.47
2018-12-20T21:02:54.937Z,17.77
2018-12-20T21:05:25.872Z,18.63
2018-12-20T21:07:54.175Z,17.13
2018-12-20T21:10:22.850Z,19.87
2018-12-20T21:12:50.452Z,17.87
2018-12-20T21:15:18.210Z,18.50
2018-12-20T21:17:45.869Z,18.37
2018-12-20T21:20:15.503Z,21.13
2018-12-20T21:22:43.258Z,19.00
2018-12-20T21:25:12.363Z,17.90
2018-12-20T21:27:40.828Z,20.70
2018-12-20T21:30:09.540Z,20.00
2018-12-20T21:32:37.317Z,19.60
2018-12-20T21:35:08.610Z,18.87
2018-12-20T21:37:36.299Z,20.47
2018-12-20T21:40:04.414Z,20.63
2018-12-20T21:42:32.543Z,17.70
2018-12-20T21:45:01.164Z,16.80
2018-12-20T21:47:28.841Z,16.40
2018-12-20T21:49:56.962Z,20.50
2018-12-20T21:52:25.020Z,18.23
2018-12-20T21:54:52.726Z,16.93
2018-12-20T21:57:23.238Z,18.97
2018-12-20T21:59:51.091Z,19.60
2018-12-20T22:02:20.884Z,18.47
2018-12-20T22:04:48.784Z,16.93
2018-12-20T22:07:16.469Z,16.80
2018-12-20T22:09:44.431Z,17.60
2018-12-20T22:12:12.199Z,16.37
2018-12-20T22:14:41.007Z,17.50
2018-12-20T22:17:08.748Z,16.63
2018-12-20T22:19:36.612Z,15.80
2018-12-20T22:22:04.472Z,16.00
2018-12-20T22:24:32.933Z,13.83
2018-12-20T22:27:01.527Z,9.27
2018-12-20T22:29:29.359Z,9.40
2018-12-20T22:31:57.781Z,7.37
2018-12-20T22:34:25.496Z,14.27
2018-12-20T22:36:53.111Z,14.90
2018-12-20T22:39:20.774Z,16.37
2018-12-20T22:41:48.378Z,15.87
2018-12-20T22:44:16.058Z,15.40
2018-12-20T22:46:43.677Z,15.00
2018-12-20T22:49:11.320Z,14.63
2018-12-20T22:51:38.955Z,17.37
2018-12-20T22:54:06.665Z,15.00
2018-12-20T22:56:34.504Z,16.70
2018-12-20T22:59:05.861Z,16.50
2018-12-20T23:01:33.726Z,15.50
2018-12-20T23:04:03.659Z,16.47
2018-12-20T23:06:32.558Z,15.10
2018-12-20T23:09:01.063Z,15.57
2018-12-20T23:11:28.877Z,14.30
2018-12-20T23:13:56.611Z,15.93
2018-12-20T23:16:24.272Z,14.77
2018-12-20T23:18:51.866Z,14.17
2018-12-20T23:21:19.536Z,16.20
2018-12-20T23:23:47.485Z,16.30
2018-12-20T23:26:15.432Z,16.67
2018-12-20T23:28:43.203Z,16.23
2018-12-20T23:31:10.795Z,17.23
2018-12-20T23:33:38.449Z,16.50
2018-12-20T23:36:07.235Z,17.40
2018-12-20T23:38:34.854Z,17.57
2018-12-20T23:41:02.549Z,16.57
2018-12-20T23:43:30.161Z,16.20
2018-12-20T23:45:58.546Z,15.63
2018-12-20T23:48:26.992Z,17.93
2018-12-20T23:50:55.843Z,14.70
2018-12-20T23:53:24.268Z,18.20
2018-12-20T23:55:54.807Z,17.57
2018-12-20T23:58:22.395Z,19.50
